Time;durP1;ratioP1;P1;durP2;ratioP2;P2;SDS_P1;SDS_P2;PMS_P1;PMS_P2;Temp;Humidity;BMP_temperature;BMP_pressure;BME280_temperature;BME280_humidity;BME280_pressure;Samples;Min_cycle;Max_cycle;Signal;HPM_P1;HPM_P2
2022/03/17 00:01:05;;;;;;;18.35;16.52;;;;;;;;;;5013325;28;93336;-72
2022/03/17 00:03:32;;;;;;;20.38;16.67;;;;;;;;;;5013813;28;94460;-72
2022/03/17 00:05:58;;;;;;;18.88;16.88;;;;;;;;;;5013601;28;92459;-72
2022/03/17 00:08:24;;;;;;;18.83;16.75;;;;;;;;;;5012704;28;93468;-72
2022/03/17 00:10:51;;;;;;;18.20;16.40;;;;;;;;;;5016395;28;94717;-73
2022/03/17 00:13:19;;;;;;;19.13;17.05;;;;;;;;;;5013592;28;94575;-72
2022/03/17 00:15:45;;;;;;;20.48;17.27;;;;;;;;;;5012553;28;94587;-72
2022/03/17 00:18:12;;;;;;;21.38;17.33;;;;;;;;;;5012945;28;92451;-72
2022/03/17 00:20:39;;;;;;;17.35;15.50;;;;;;;;;;5010133;28;96749;-72
2022/03/17 00:23:06;;;;;;;19.42;17.33;;;;;;;;;;5012681;28;94112;-72
2022/03/17 00:25:33;;;;;;;30.88;16.85;;;;;;;;;;5013141;28;92456;-73
2022/03/17 00:28:00;;;;;;;22.38;18.38;;;;;;;;;;5013286;28;94050;-72
2022/03/17 00:30:26;;;;;;;18.80;16.88;;;;;;;;;;5012396;28;93378;-72
2022/03/17 00:32:52;;;;;;;17.08;15.18;;;;;;;;;;5016639;28;92487;-72
2022/03/17 00:35:38;;;;;;;18.65;16.52;;;;;;;;;;5012202;28;93144;-72
2022/03/17 00:38:07;;;;;;;27.13;18.35;;;;;;;;;;5012741;28;91737;-72
2022/03/17 00:40:35;;;;;;;22.58;18.40;;;;;;;;;;5013414;28;94317;-72
2022/03/17 00:43:03;;;;;;;22.80;17.80;;;;;;;;;;5012520;28;93424;-72
2022/03/17 00:45:29;;;;;;;17.98;16.08;;;;;;;;;;5011008;28;94912;-72
2022/03/17 00:47:55;;;;;;;19.65;17.48;;;;;;;;;;5012989;28;96210;-72
2022/03/17 00:50:22;;;;;;;18.33;16.52;;;;;;;;;;5011871;28;94395;-72
2022/03/17 00:52:49;;;;;;;19.60;17.60;;;;;;;;;;5016239;27;93891;-72
2022/03/17 00:55:16;;;;;;;23.13;18.02;;;;;;;;;;5012373;28;94191;-72
2022/03/17 00:57:42;;;;;;;19.92;17.92;;;;;;;;;;5012544;28;93365;-72
2022/03/17 01:00:09;;;;;;;18.73;16.75;;;;;;;;;;5012801;28;93936;-72
2022/03/17 01:02:36;;;;;;;19.67;17.65;;;;;;;;;;5013823;28;92918;-72
2022/03/17 01:05:03;;;;;;;18.27;16.35;;;;;;;;;;5011954;28;93164;-72
2022/03/17 01:07:31;;;;;;;17.70;15.75;;;;;;;;;;5011417;28;94073;-72
2022/03/17 01:09:57;;;;;;;18.88;16.17;;;;;;;;;;5010654;28;97011;-72
2022/03/17 01:12:23;;;;;;;20.58;17.17;;;;;;;;;;5012227;28;92502;-72
2022/03/17 01:14:50;;;;;;;32.88;17.75;;;;;;;;;;5015087;28;94040;-72
2022/03/17 01:17:16;;;;;;;21.48;17.10;;;;;;;;;;5012553;28;92780;-72
2022/03/17 01:19:43;;;;;;;24.92;17.77;;;;;;;;;;5011601;28;94117;-72
2022/03/17 01:22:11;;;;;;;22.70;17.83;;;;;;;;;;5011690;28;93723;-72
2022/03/17 01:24:37;;;;;;;21.13;18.80;;;;;;;;;;5011761;28;93046;-72
2022/03/17 01:27:03;;;;;;;18.25;15.90;;;;;;;;;;5012891;28;93239;-72
2022/03/17 01:29:30;;;;;;;16.98;15.25;;;;;;;;;;5011876;28;94510;-72
2022/03/17 01:31:56;;;;;;;19.95;17.75;;;;;;;;;;5012603;28;92676;-72
2022/03/17 01:34:22;;;;;;;24.20;18.50;;;;;;;;;;5010116;28;94861;-72
2022/03/17 01:36:49;;;;;;;18.80;16.83;;;;;;;;;;5016122;28;93964;-72
2022/03/17 01:39:15;;;;;;;23.23;18.55;;;;;;;;;;5010289;28;94076;-72
2022/03/17 01:41:42;;;;;;;19.45;16.42;;;;;;;;;;5011803;28;94018;-72
2022/03/17 01:44:08;;;;;;;19.83;17.45;;;;;;;;;;5012078;28;94839;-72
2022/03/17 01:47:26;;;;;;;21.70;18.60;;;;;;;;;;5012197;28;93176;-72
2022/03/17 01:49:21;;;;;;;21.83;17.80;;;;;;;;;;5010220;28;95424;-72
2022/03/17 01:51:50;;;;;;;21.52;17.98;;;;;;;;;;5013014;28;91812;-72
2022/03/17 01:54:19;;;;;;;23.13;17.95;;;;;;;;;;5010975;28;94143;-70
2022/03/17 01:57:04;;;;;;;21.25;18.10;;;;;;;;;;5011689;28;94161;-73
2022/03/17 01:59:31;;;;;;;20.58;18.58;;;;;;;;;;5013038;28;94878;-71
2022/03/17 02:01:58;;;;;;;20.55;17.83;;;;;;;;;;5006110;28;95344;-71
2022/03/17 02:04:25;;;;;;;21.13;18.48;;;;;;;;;;4992675;28;92535;-71
2022/03/17 02:06:51;;;;;;;20.90;18.63;;;;;;;;;;5012460;28;94010;-71
2022/03/17 02:09:20;;;;;;;23.65;17.50;;;;;;;;;;5010586;28;93710;-71
2022/03/17 02:14:34;;;;;;;20.60;18.00;;;;;;;;;;5010728;28;93779;-71
2022/03/17 02:17:00;;;;;;;25.38;18.98;;;;;;;;;;5012720;28;93341;-71
2022/03/17 02:19:27;;;;;;;23.52;19.40;;;;;;;;;;5011832;28;93065;-71
2022/03/17 02:21:53;;;;;;;25.58;18.83;;;;;;;;;;5014410;28;92988;-71
2022/03/17 02:27:06;;;;;;;21.20;18.67;;;;;;;;;;4996361;28;96268;-71
2022/03/17 02:29:32;;;;;;;35.65;19.35;;;;;;;;;;5009732;28;94200;-71
2022/03/17 02:31:58;;;;;;;28.17;20.95;;;;;;;;;;5012055;28;92456;-71
2022/03/17 02:34:25;;;;;;;28.35;20.48;;;;;;;;;;5010562;28;94154;-71
2022/03/17 02:36:51;;;;;;;25.75;20.77;;;;;;;;;;5011180;28;94278;-71
2022/03/17 02:39:19;;;;;;;26.98;20.10;;;;;;;;;;5011033;28;93064;-71
2022/03/17 02:41:47;;;;;;;31.17;22.30;;;;;;;;;;5013657;28;94013;-71
2022/03/17 02:44:13;;;;;;;26.83;23.02;;;;;;;;;;5010017;28;94490;-71
2022/03/17 02:46:39;;;;;;;32.00;23.20;;;;;;;;;;5010895;28;92488;-71
2022/03/17 02:49:06;;;;;;;33.72;23.00;;;;;;;;;;5009754;28;95577;-71
2022/03/17 02:51:32;;;;;;;33.53;22.55;;;;;;;;;;5010410;28;92909;-71
2022/03/17 02:53:58;;;;;;;30.70;23.92;;;;;;;;;;5011700;28;93193;-71
2022/03/17 02:56:26;;;;;;;32.92;24.98;;;;;;;;;;5011376;28;93323;-71
2022/03/17 02:58:53;;;;;;;30.80;25.27;;;;;;;;;;5009853;28;94127;-71
2022/03/17 03:01:19;;;;;;;31.35;22.98;;;;;;;;;;5010138;28;93805;-71
2022/03/17 03:03:46;;;;;;;30.52;25.10;;;;;;;;;;5012277;28;94210;-71
2022/03/17 03:06:13;;;;;;;34.92;27.50;;;;;;;;;;5011713;28;94899;-71
2022/03/17 03:08:39;;;;;;;34.67;27.42;;;;;;;;;;5010922;28;94532;-71
2022/03/17 03:11:06;;;;;;;38.45;28.55;;;;;;;;;;5010826;28;92489;-72
2022/03/17 03:13:32;;;;;;;37.30;27.02;;;;;;;;;;5009247;28;94933;-71
2022/03/17 03:15:58;;;;;;;36.15;26.92;;;;;;;;;;5009508;28;93423;-73
2022/03/17 03:18:25;;;;;;;26.58;19.23;;;;;;;;;;5010646;28;92771;-71
2022/03/17 03:20:51;;;;;;;18.10;14.85;;;;;;;;;;5011031;28;94647;-71
2022/03/17 03:23:18;;;;;;;17.65;14.02;;;;;;;;;;5010558;28;94195;-71
2022/03/17 03:25:44;;;;;;;13.10;11.52;;;;;;;;;;5013173;28;92495;-73
2022/03/17 03:28:10;;;;;;;7.38;5.85;;;;;;;;;;5011321;28;95668;-73
2022/03/17 03:30:37;;;;;;;8.40;7.70;;;;;;;;;;5010821;28;91748;-73
2022/03/17 03:33:07;;;;;;;6.60;6.05;;;;;;;;;;5010880;28;93194;-73
2022/03/17 03:38:21;;;;;;;6.93;5.32;;;;;;;;;;5011931;28;94836;-73
2022/03/17 03:40:47;;;;;;;4.90;4.03;;;;;;;;;;5014519;28;95249;-73
2022/03/17 03:43:14;;;;;;;4.35;3.72;;;;;;;;;;5014620;28;93421;-73
2022/03/17 03:45:40;;;;;;;5.00;4.60;;;;;;;;;;5014631;28;92455;-73
2022/03/17 03:48:06;;;;;;;7.82;5.32;;;;;;;;;;5016285;28;93393;-73
2022/03/17 03:50:33;;;;;;;8.23;6.00;;;;;;;;;;5015330;28;92434;-73
2022/03/17 03:52:59;;;;;;;5.85;4.57;;;;;;;;;;5013840;28;93182;-73
2022/03/17 03:55:26;;;;;;;5.55;4.60;;;;;;;;;;5015090;28;93067;-73
2022/03/17 03:57:52;;;;;;;5.00;4.60;;;;;;;;;;5014728;28;92913;-73
2022/03/17 04:02:58;;;;;;;4.22;3.72;;;;;;;;;;5011550;28;96950;-73
2022/03/17 04:05:34;;;;;;;3.47;3.10;;;;;;;;;;5013971;28;92974;-73
2022/03/17 04:08:00;;;;;;;7.78;3.63;;;;;;;;;;5013809;28;92735;-73
2022/03/17 04:10:27;;;;;;;5.95;3.78;;;;;;;;;;5017648;28;94515;-72
2022/03/17 04:12:54;;;;;;;6.00;5.40;;;;;;;;;;5014325;28;93033;-72
2022/03/17 04:15:20;;;;;;;6.07;5.35;;;;;;;;;;5013086;28;93215;-72
2022/03/17 04:17:49;;;;;;;7.43;5.10;;;;;;;;;;5014077;28;93262;-72
2022/03/17 04:20:15;;;;;;;7.35;5.47;;;;;;;;;;5013482;28;93951;-72
2022/03/17 04:22:41;;;;;;;5.57;5.05;;;;;;;;;;5013321;28;93307;-72
2022/03/17 04:25:08;;;;;;;7.90;6.38;;;;;;;;;;5014743;28;92989;-72
2022/03/17 04:27:34;;;;;;;9.10;5.85;;;;;;;;;;5013217;28;94867;-72
2022/03/17 04:30:01;;;;;;;10.70;7.32;;;;;;;;;;5013460;28;93490;-71
2022/03/17 04:32:27;;;;;;;11.05;7.50;;;;;;;;;;5017584;28;92664;-71
2022/03/17 04:34:53;;;;;;;13.30;7.97;;;;;;;;;;5012986;28;92529;-71
2022/03/17 04:37:20;;;;;;;11.52;7.03;;;;;;;;;;5011671;28;92485;-71
2022/03/17 04:39:46;;;;;;;11.25;7.60;;;;;;;;;;5012677;28;93825;-71
2022/03/17 04:42:12;;;;;;;16.13;7.65;;;;;;;;;;5012875;28;94197;-71
2022/03/17 04:44:39;;;;;;;16.95;8.02;;;;;;;;;;5014242;28;94906;-71
2022/03/17 04:47:05;;;;;;;15.85;8.27;;;;;;;;;;5014647;28;93219;-71
2022/03/17 04:49:32;;;;;;;15.10;9.00;;;;;;;;;;5011825;28;94317;-71
2022/03/17 04:51:58;;;;;;;17.33;8.85;;;;;;;;;;5012852;28;94992;-71
2022/03/17 04:54:24;;;;;;;18.00;6.55;;;;;;;;;;5013218;28;94462;-71
2022/03/17 04:56:51;;;;;;;17.00;6.63;;;;;;;;;;5013014;28;92643;-71
2022/03/17 04:59:20;;;;;;;16.77;5.63;;;;;;;;;;5013862;28;93961;-71
2022/03/17 05:01:47;;;;;;;17.00;6.00;;;;;;;;;;5012638;28;95136;-71
2022/03/17 05:04:13;;;;;;;19.00;5.47;;;;;;;;;;5011909;28;92438;-71
2022/03/17 05:06:39;;;;;;;19.42;5.03;;;;;;;;;;5013465;28;93088;-71
2022/03/17 05:09:06;;;;;;;11.00;4.20;;;;;;;;;;5013643;28;93363;-71
2022/03/17 05:11:32;;;;;;;14.07;4.20;;;;;;;;;;5011588;28;94365;-71
2022/03/17 05:13:58;;;;;;;23.50;4.68;;;;;;;;;;5016599;28;94061;-71
2022/03/17 05:16:25;;;;;;;9.70;3.10;;;;;;;;;;5011367;28;94904;-72
2022/03/17 05:18:51;;;;;;;11.88;3.22;;;;;;;;;;5013512;28;94062;-72
2022/03/17 05:21:19;;;;;;;11.57;3.38;;;;;;;;;;5012891;28;94178;-72
2022/03/17 05:23:45;;;;;;;11.27;3.05;;;;;;;;;;5012361;28;93003;-72
2022/03/17 05:26:11;;;;;;;7.88;2.45;;;;;;;;;;5012865;28;92932;-72
2022/03/17 05:28:38;;;;;;;5.20;2.00;;;;;;;;;;5012585;28;93246;-72
2022/03/17 05:31:05;;;;;;;9.50;2.35;;;;;;;;;;5012978;28;92628;-72
2022/03/17 05:33:31;;;;;;;11.15;3.20;;;;;;;;;;5012935;28;91678;-72
2022/03/17 05:35:57;;;;;;;13.02;2.67;;;;;;;;;;5016080;28;93443;-72
2022/03/17 05:38:24;;;;;;;17.48;2.97;;;;;;;;;;5012020;28;94163;-72
2022/03/17 05:40:52;;;;;;;13.05;3.10;;;;;;;;;;5010835;28;96594;-72
2022/03/17 05:43:18;;;;;;;12.50;2.35;;;;;;;;;;5013598;28;92451;-72
2022/03/17 05:45:44;;;;;;;8.60;2.60;;;;;;;;;;5012156;28;93996;-72
2022/03/17 05:48:11;;;;;;;15.75;2.90;;;;;;;;;;5013365;28;93104;-71
2022/03/17 05:50:41;;;;;;;9.75;2.20;;;;;;;;;;5012805;28;92993;-72
2022/03/17 05:53:09;;;;;;;9.50;2.53;;;;;;;;;;5011683;28;93917;-71
2022/03/17 05:55:36;;;;;;;20.13;4.47;;;;;;;;;;5011979;28;92555;-72
2022/03/17 05:58:02;;;;;;;7.45;2.40;;;;;;;;;;5016996;28;91822;-72
2022/03/17 06:00:29;;;;;;;15.18;2.38;;;;;;;;;;5011992;28;94022;-72
2022/03/17 06:02:57;;;;;;;10.10;2.42;;;;;;;;;;5011964;28;92625;-72
2022/03/17 06:05:24;;;;;;;16.52;3.10;;;;;;;;;;5011322;28;94822;-72
2022/03/17 06:07:51;;;;;;;10.90;2.80;;;;;;;;;;5012089;28;94035;-72
2022/03/17 06:10:19;;;;;;;12.93;2.88;;;;;;;;;;5013005;28;92935;-72
2022/03/17 06:12:45;;;;;;;19.50;3.25;;;;;;;;;;5011640;28;94294;-72
2022/03/17 06:15:12;;;;;;;17.70;3.50;;;;;;;;;;5012153;28;94050;-72
2022/03/17 06:17:39;;;;;;;17.60;3.00;;;;;;;;;;5011383;28;92477;-72
2022/03/17 06:20:09;;;;;;;13.38;2.38;;;;;;;;;;5016065;27;92961;-72
2022/03/17 06:22:39;;;;;;;17.13;3.20;;;;;;;;;;5012796;28;91695;-72
2022/03/17 06:25:06;;;;;;;11.75;3.47;;;;;;;;;;5012515;28;93524;-72
2022/03/17 06:27:34;;;;;;;10.77;3.25;;;;;;;;;;5010337;28;94290;-71
2022/03/17 06:30:02;;;;;;;13.63;2.75;;;;;;;;;;4991619;28;95222;-71
2022/03/17 06:32:29;;;;;;;17.00;3.10;;;;;;;;;;5003155;28;96945;-71
2022/03/17 06:34:55;;;;;;;14.10;2.50;;;;;;;;;;5012247;28;94279;-71
2022/03/17 06:37:22;;;;;;;25.92;4.03;;;;;;;;;;5011565;28;92481;-71
2022/03/17 06:39:48;;;;;;;22.63;3.58;;;;;;;;;;5012730;28;94137;-71
2022/03/17 06:42:14;;;;;;;20.60;3.10;;;;;;;;;;5014086;28;94113;-71
2022/03/17 06:44:41;;;;;;;16.23;3.72;;;;;;;;;;5011421;28;93099;-72
2022/03/17 06:47:07;;;;;;;13.60;3.20;;;;;;;;;;5012494;28;93910;-71
2022/03/17 06:49:33;;;;;;;11.13;3.03;;;;;;;;;;5011018;28;92450;-73
2022/03/17 06:52:00;;;;;;;10.73;3.30;;;;;;;;;;5012385;28;93064;-72
2022/03/17 06:54:26;;;;;;;11.55;3.10;;;;;;;;;;5009449;28;96821;-71
2022/03/17 06:56:52;;;;;;;8.82;2.70;;;;;;;;;;5011894;28;92623;-71
2022/03/17 06:59:19;;;;;;;11.93;3.17;;;;;;;;;;5011099;28;93748;-71
2022/03/17 07:01:45;;;;;;;13.20;3.63;;;;;;;;;;5013783;28;93431;-71
2022/03/17 07:04:12;;;;;;;20.58;3.75;;;;;;;;;;5010746;28;93322;-72
2022/03/17 07:06:38;;;;;;;11.93;2.15;;;;;;;;;;5008721;28;93486;-71
2022/03/17 07:09:04;;;;;;;10.07;2.90;;;;;;;;;;5011397;28;92521;-71
2022/03/17 07:11:31;;;;;;;12.70;3.13;;;;;;;;;;5000609;28;93492;-71
2022/03/17 07:13:57;;;;;;;19.63;3.60;;;;;;;;;;4998020;27;95455;-71
2022/03/17 07:16:23;;;;;;;11.90;3.88;;;;;;;;;;5003270;28;94177;-71
2022/03/17 07:18:50;;;;;;;14.00;3.45;;;;;;;;;;5008175;28;96433;-71
2022/03/17 07:21:17;;;;;;;7.63;3.40;;;;;;;;;;5015320;28;93413;-72
2022/03/17 07:23:43;;;;;;;14.85;2.65;;;;;;;;;;5018059;28;92466;-72
2022/03/17 07:26:10;;;;;;;11.50;3.80;;;;;;;;;;5013876;28;94362;-71
2022/03/17 07:28:37;;;;;;;7.13;2.58;;;;;;;;;;5013644;28;92571;-71
2022/03/17 07:31:03;;;;;;;6.85;2.22;;;;;;;;;;5014264;28;94186;-71
2022/03/17 07:33:32;;;;;;;7.85;2.85;;;;;;;;;;5011351;28;93889;-71
2022/03/17 07:35:58;;;;;;;13.57;3.03;;;;;;;;;;5009854;28;93985;-71
2022/03/17 07:38:25;;;;;;;6.93;2.70;;;;;;;;;;5011841;28;93277;-71
2022/03/17 07:40:51;;;;;;;13.00;2.85;;;;;;;;;;5011338;28;94724;-71
2022/03/17 07:43:17;;;;;;;14.25;2.45;;;;;;;;;;5012882;28;94852;-71
2022/03/17 07:46:06;;;;;;;11.80;2.65;;;;;;;;;;5003979;28;95046;-71
2022/03/17 07:48:53;;;;;;;19.30;2.58;;;;;;;;;;5012144;28;93972;-71
2022/03/17 07:51:30;;;;;;;7.40;2.00;;;;;;;;;;5011116;28;93976;-71
2022/03/17 07:53:56;;;;;;;12.35;2.75;;;;;;;;;;5008864;28;94123;-71
2022/03/17 07:56:22;;;;;;;17.13;2.70;;;;;;;;;;5013411;28;92508;-71
2022/03/17 07:58:49;;;;;;;8.68;1.85;;;;;;;;;;5014493;28;92893;-71
2022/03/17 08:01:17;;;;;;;4.65;1.88;;;;;;;;;;5012622;28;92405;-71
2022/03/17 08:03:44;;;;;;;17.48;2.33;;;;;;;;;;5019173;28;92550;-71
2022/03/17 08:06:12;;;;;;;7.25;1.90;;;;;;;;;;5012432;28;93097;-71
2022/03/17 08:08:38;;;;;;;11.13;2.10;;;;;;;;;;5015645;28;96566;-71
2022/03/17 08:11:05;;;;;;;12.18;2.40;;;;;;;;;;5013644;28;95194;-71
2022/03/17 08:13:32;;;;;;;23.63;3.03;;;;;;;;;;5012776;28;94063;-72
2022/03/17 08:15:58;;;;;;;12.45;2.53;;;;;;;;;;5014636;28;92440;-72
2022/03/17 08:18:25;;;;;;;11.85;2.70;;;;;;;;;;5013089;28;94106;-72
2022/03/17 08:20:51;;;;;;;17.52;3.95;;;;;;;;;;5013326;28;93686;-72
2022/03/17 08:23:21;;;;;;;17.52;3.35;;;;;;;;;;5013130;28;92529;-72
2022/03/17 08:25:51;;;;;;;11.43;2.47;;;;;;;;;;5013181;28;95343;-72
2022/03/17 08:28:18;;;;;;;11.18;2.45;;;;;;;;;;5012960;28;94122;-72
2022/03/17 08:30:48;;;;;;;17.02;2.45;;;;;;;;;;5016260;28;93027;-72
2022/03/17 08:33:16;;;;;;;18.05;3.20;;;;;;;;;;5012757;28;96494;-72
2022/03/17 08:35:42;;;;;;;12.10;3.03;;;;;;;;;;5013232;28;92960;-73
2022/03/17 08:38:09;;;;;;;12.27;2.80;;;;;;;;;;5013347;28;93948;-72
2022/03/17 08:40:40;;;;;;;14.25;3.22;;;;;;;;;;5013682;28;93944;-72
2022/03/17 08:43:09;;;;;;;14.50;3.00;;;;;;;;;;5009668;28;93537;-73
2022/03/17 08:51:10;;;;;;;10.38;2.63;;;;;;;;;;5015031;28;91736;-73
2022/03/17 08:53:36;;;;;;;7.55;2.70;;;;;;;;;;5023943;28;93389;-73
2022/03/17 08:56:03;;;;;;;17.73;3.30;;;;;;;;;;5012804;28;93049;-73
2022/03/17 08:58:30;;;;;;;9.15;3.35;;;;;;;;;;5010211;28;94973;-72
2022/03/17 09:00:57;;;;;;;12.55;2.60;;;;;;;;;;5009188;28;93401;-73
2022/03/17 09:03:25;;;;;;;15.82;2.78;;;;;;;;;;5009702;28;92796;-72
2022/03/17 09:05:52;;;;;;;15.20;3.08;;;;;;;;;;5007131;28;93285;-73
2022/03/17 09:08:18;;;;;;;8.98;2.85;;;;;;;;;;5012475;27;93627;-73
2022/03/17 09:10:46;;;;;;;7.05;2.08;;;;;;;;;;5005268;28;94780;-73
2022/03/17 09:13:13;;;;;;;9.43;2.13;;;;;;;;;;5011831;28;93572;-73
2022/03/17 09:15:40;;;;;;;8.25;2.50;;;;;;;;;;5008195;28;92267;-73
2022/03/17 09:18:08;;;;;;;11.15;2.35;;;;;;;;;;5010573;28;93215;-74
2022/03/17 09:20:36;;;;;;;15.68;2.70;;;;;;;;;;5008544;28;93582;-73
2022/03/17 09:23:02;;;;;;;5.55;1.58;;;;;;;;;;5007673;28;96379;-73
2022/03/17 09:25:29;;;;;;;9.95;2.90;;;;;;;;;;5010977;28;96320;-73
2022/03/17 09:27:56;;;;;;;6.63;2.15;;;;;;;;;;4998852;28;94255;-73
2022/03/17 09:30:23;;;;;;;11.07;2.00;;;;;;;;;;5009931;28;92777;-73
2022/03/17 09:32:52;;;;;;;13.90;3.25;;;;;;;;;;5011320;28;93974;-73
2022/03/17 09:35:19;;;;;;;13.68;2.90;;;;;;;;;;5012244;28;93941;-73
2022/03/17 09:37:45;;;;;;;10.68;2.88;;;;;;;;;;5010335;28;93993;-73
2022/03/17 09:40:12;;;;;;;14.85;2.88;;;;;;;;;;5011851;28;92467;-73
2022/03/17 09:42:38;;;;;;;23.00;3.00;;;;;;;;;;5012693;28;92693;-73
2022/03/17 09:45:09;;;;;;;10.32;2.90;;;;;;;;;;5012531;28;93672;-73
2022/03/17 09:47:36;;;;;;;19.65;3.45;;;;;;;;;;5011569;28;95649;-73
2022/03/17 09:50:03;;;;;;;18.40;2.85;;;;;;;;;;5010688;28;92976;-74
2022/03/17 09:52:31;;;;;;;13.20;3.30;;;;;;;;;;5012614;28;93481;-73
2022/03/17 09:54:57;;;;;;;10.52;3.13;;;;;;;;;;5007818;28;94204;-73
2022/03/17 09:57:24;;;;;;;11.95;2.80;;;;;;;;;;5012990;28;92715;-73
2022/03/17 09:59:56;;;;;;;12.88;2.80;;;;;;;;;;5012421;28;93337;-73
2022/03/17 10:02:23;;;;;;;8.45;2.42;;;;;;;;;;5013063;28;92956;-73
2022/03/17 10:04:49;;;;;;;17.65;3.30;;;;;;;;;;5011695;28;93073;-73
2022/03/17 10:07:18;;;;;;;12.32;3.17;;;;;;;;;;5009919;28;94290;-73
2022/03/17 10:09:47;;;;;;;12.85;2.88;;;;;;;;;;5014537;28;93894;-72
2022/03/17 10:12:16;;;;;;;11.63;3.08;;;;;;;;;;5007088;28;96173;-71
2022/03/17 10:14:49;;;;;;;10.45;2.40;;;;;;;;;;5008456;28;95877;-72
2022/03/17 10:17:35;;;;;;;7.43;2.15;;;;;;;;;;5012273;28;93402;-71
2022/03/17 10:20:25;;;;;;;10.63;2.60;;;;;;;;;;5015111;28;94197;-71
2022/03/17 10:22:52;;;;;;;14.55;2.65;;;;;;;;;;5013763;27;92511;-72
2022/03/17 10:25:20;;;;;;;7.00;2.67;;;;;;;;;;5008012;28;93963;-73
2022/03/17 10:27:49;;;;;;;6.03;2.63;;;;;;;;;;5010714;28;94152;-72
2022/03/17 10:30:30;;;;;;;7.00;2.40;;;;;;;;;;5011032;28;91955;-72
2022/03/17 10:32:58;;;;;;;4.90;3.15;;;;;;;;;;5015112;28;93286;-72
2022/03/17 10:35:25;;;;;;;5.28;2.33;;;;;;;;;;4998266;28;93415;-72
2022/03/17 10:37:52;;;;;;;4.97;1.83;;;;;;;;;;5010123;28;95243;-74
2022/03/17 10:40:27;;;;;;;11.50;2.67;;;;;;;;;;5012209;28;95851;-73
2022/03/17 10:42:53;;;;;;;7.30;3.33;;;;;;;;;;5015009;28;94271;-73
2022/03/17 10:45:27;;;;;;;4.97;2.10;;;;;;;;;;5004044;28;94089;-73
2022/03/17 10:48:05;;;;;;;5.38;2.30;;;;;;;;;;5011613;28;94268;-73
2022/03/17 10:50:36;;;;;;;8.80;2.63;;;;;;;;;;5012481;28;92836;-73
2022/03/17 10:53:02;;;;;;;5.57;2.38;;;;;;;;;;5020069;28;93832;-72
2022/03/17 10:55:30;;;;;;;7.47;2.63;;;;;;;;;;5015700;28;93124;-73
2022/03/17 10:58:14;;;;;;;7.93;2.50;;;;;;;;;;5015433;28;92448;-73
2022/03/17 11:00:52;;;;;;;9.77;3.67;;;;;;;;;;5014396;28;93956;-71
2022/03/17 11:03:20;;;;;;;8.77;2.75;;;;;;;;;;5004533;28;96485;-71
2022/03/17 11:05:50;;;;;;;8.98;2.17;;;;;;;;;;5016753;28;92588;-71
2022/03/17 11:08:18;;;;;;;7.07;1.60;;;;;;;;;;5013281;28;94811;-73
2022/03/17 11:10:44;;;;;;;5.60;1.58;;;;;;;;;;5010959;28;93042;-73
2022/03/17 11:13:11;;;;;;;4.05;1.55;;;;;;;;;;5014464;28;93157;-74
2022/03/17 11:15:38;;;;;;;4.90;1.98;;;;;;;;;;5013489;28;94139;-73
2022/03/17 11:18:06;;;;;;;3.67;2.08;;;;;;;;;;5015232;28;92511;-73
2022/03/17 11:20:33;;;;;;;6.40;1.90;;;;;;;;;;5013422;28;95217;-73
2022/03/17 11:23:03;;;;;;;6.30;1.70;;;;;;;;;;5013906;28;94794;-74
2022/03/17 11:25:29;;;;;;;8.90;1.83;;;;;;;;;;5015234;28;92917;-73
2022/03/17 11:27:56;;;;;;;5.32;1.60;;;;;;;;;;5016919;28;96497;-72
2022/03/17 11:30:28;;;;;;;4.50;1.92;;;;;;;;;;5009977;28;94085;-73
2022/03/17 11:32:55;;;;;;;3.22;1.80;;;;;;;;;;5014276;28;94225;-74
2022/03/17 11:35:25;;;;;;;9.27;1.80;;;;;;;;;;5011957;28;95475;-72
2022/03/17 11:38:12;;;;;;;5.45;1.80;;;;;;;;;;5003616;28;92506;-71
2022/03/17 11:40:58;;;;;;;6.28;1.52;;;;;;;;;;5015209;27;93563;-71
2022/03/17 11:43:38;;;;;;;3.83;2.00;;;;;;;;;;5006982;28;93956;-72
2022/03/17 11:46:14;;;;;;;5.72;2.08;;;;;;;;;;5018004;28;93370;-72
2022/03/17 11:48:42;;;;;;;6.25;2.10;;;;;;;;;;5018476;28;92393;-71
2022/03/17 11:51:09;;;;;;;4.72;1.55;;;;;;;;;;5013961;28;92570;-71
2022/03/17 11:53:37;;;;;;;3.53;1.77;;;;;;;;;;5003216;28;94987;-71
2022/03/17 11:56:05;;;;;;;6.28;1.80;;;;;;;;;;5007917;28;94114;-74
2022/03/17 11:58:40;;;;;;;5.93;2.20;;;;;;;;;;5012279;28;92430;-74
2022/03/17 12:01:06;;;;;;;6.45;1.60;;;;;;;;;;5014444;28;93073;-73
2022/03/17 12:03:43;;;;;;;4.07;1.98;;;;;;;;;;5013643;28;93146;-72
2022/03/17 12:06:12;;;;;;;6.53;1.80;;;;;;;;;;5013239;28;93023;-71
2022/03/17 12:08:42;;;;;;;6.95;2.08;;;;;;;;;;5014157;28;94100;-72
2022/03/17 12:11:09;;;;;;;6.38;2.22;;;;;;;;;;5017519;28;92853;-72
2022/03/17 12:13:36;;;;;;;6.07;2.42;;;;;;;;;;5009496;28;93042;-72
2022/03/17 12:16:07;;;;;;;5.53;2.22;;;;;;;;;;5013584;28;94079;-71
2022/03/17 12:18:56;;;;;;;8.55;2.35;;;;;;;;;;5012343;28;94873;-71
2022/03/17 12:21:42;;;;;;;9.85;2.17;;;;;;;;;;5010521;28;96301;-72
2022/03/17 12:24:09;;;;;;;4.97;1.98;;;;;;;;;;5012013;28;93906;-72
2022/03/17 12:26:35;;;;;;;4.50;1.83;;;;;;;;;;5011201;28;92506;-72
2022/03/17 12:29:02;;;;;;;9.85;2.50;;;;;;;;;;5011861;28;94267;-73
2022/03/17 12:31:28;;;;;;;10.10;2.88;;;;;;;;;;5013109;28;94251;-74
2022/03/17 12:33:54;;;;;;;10.98;2.38;;;;;;;;;;5019657;28;93026;-73
2022/03/17 12:36:22;;;;;;;5.38;1.98;;;;;;;;;;5012943;28;94215;-72
2022/03/17 12:38:49;;;;;;;9.23;2.03;;;;;;;;;;5010752;28;92485;-71
2022/03/17 12:41:15;;;;;;;7.03;1.92;;;;;;;;;;5013341;28;92986;-71
2022/03/17 12:43:42;;;;;;;9.07;2.38;;;;;;;;;;5011338;28;96633;-71
2022/03/17 12:46:09;;;;;;;6.00;2.33;;;;;;;;;;5015229;28;92774;-74
2022/03/17 12:48:36;;;;;;;6.90;2.13;;;;;;;;;;5014033;28;92861;-73
2022/03/17 12:51:05;;;;;;;13.32;2.38;;;;;;;;;;5014162;28;93168;-73
2022/03/17 12:53:31;;;;;;;4.60;1.70;;;;;;;;;;5014107;28;92439;-74
2022/03/17 12:55:57;;;;;;;3.42;2.28;;;;;;;;;;5016668;28;93774;-71
2022/03/17 12:58:24;;;;;;;9.52;2.20;;;;;;;;;;5014028;28;92658;-71
2022/03/17 13:00:51;;;;;;;8.63;2.35;;;;;;;;;;5013698;28;94257;-73
2022/03/17 13:03:25;;;;;;;11.85;2.40;;;;;;;;;;5013328;28;93239;-73
2022/03/17 13:08:41;;;;;;;4.60;1.80;;;;;;;;;;5011810;28;94796;-73
2022/03/17 13:16:43;;;;;;;5.03;2.40;;;;;;;;;;5016961;27;93465;-71
2022/03/17 13:19:10;;;;;;;9.70;2.00;;;;;;;;;;5011773;28;92963;-71
2022/03/17 13:21:37;;;;;;;9.85;2.25;;;;;;;;;;5014276;28;93017;-71
2022/03/17 13:24:17;;;;;;;7.53;2.50;;;;;;;;;;5013285;28;94291;-71
2022/03/17 13:26:56;;;;;;;12.60;2.00;;;;;;;;;;5014316;28;91714;-71
2022/03/17 13:29:35;;;;;;;9.80;2.08;;;;;;;;;;5013470;28;92574;-71
2022/03/17 13:32:02;;;;;;;4.47;1.70;;;;;;;;;;5013724;28;94697;-71
2022/03/17 13:34:38;;;;;;;5.72;1.60;;;;;;;;;;5012431;28;95419;-71
2022/03/17 13:37:09;;;;;;;5.78;1.88;;;;;;;;;;5011935;28;96324;-70
2022/03/17 13:39:36;;;;;;;14.48;2.47;;;;;;;;;;5016790;28;94698;-71
2022/03/17 13:42:05;;;;;;;4.50;2.08;;;;;;;;;;5013554;28;94542;-71
2022/03/17 13:44:42;;;;;;;5.43;2.30;;;;;;;;;;5012396;28;94182;-71
2022/03/17 13:47:12;;;;;;;9.00;2.25;;;;;;;;;;5013615;28;92659;-71
2022/03/17 13:49:38;;;;;;;4.47;1.52;;;;;;;;;;5013901;28;93298;-71
2022/03/17 13:52:05;;;;;;;7.88;2.08;;;;;;;;;;5013245;28;93364;-71
2022/03/17 13:54:37;;;;;;;7.30;2.03;;;;;;;;;;5011731;28;92536;-71
2022/03/17 13:57:04;;;;;;;7.35;2.00;;;;;;;;;;5013699;28;93787;-71
2022/03/17 13:59:31;;;;;;;4.85;1.92;;;;;;;;;;5010739;28;96599;-71
2022/03/17 14:02:13;;;;;;;11.73;2.60;;;;;;;;;;5016501;28;92885;-71
2022/03/17 14:04:51;;;;;;;9.20;2.50;;;;;;;;;;5011945;28;95464;-71
2022/03/17 14:07:18;;;;;;;6.25;2.20;;;;;;;;;;5017461;28;92565;-71
2022/03/17 14:09:45;;;;;;;9.13;1.90;;;;;;;;;;5013111;28;93917;-71
2022/03/17 14:12:11;;;;;;;7.00;2.17;;;;;;;;;;5010935;28;93608;-71
2022/03/17 14:14:42;;;;;;;6.65;2.05;;;;;;;;;;5013143;28;92453;-71
2022/03/17 14:17:11;;;;;;;5.50;2.03;;;;;;;;;;5013891;28;92999;-71
2022/03/17 14:19:37;;;;;;;6.32;1.60;;;;;;;;;;5012120;28;93999;-71
2022/03/17 14:24:49;;;;;;;6.60;2.00;;;;;;;;;;5014788;28;96412;-71
2022/03/17 14:27:15;;;;;;;8.35;1.65;;;;;;;;;;5012365;28;92399;-71
2022/03/17 14:29:41;;;;;;;4.45;1.88;;;;;;;;;;5011783;28;93125;-71
2022/03/17 14:32:08;;;;;;;6.68;1.85;;;;;;;;;;5013117;28;93222;-70
2022/03/17 14:34:34;;;;;;;4.28;1.92;;;;;;;;;;5012652;28;92518;-72
2022/03/17 14:37:01;;;;;;;8.30;2.05;;;;;;;;;;5012803;28;94045;-72
2022/03/17 14:39:29;;;;;;;5.68;1.77;;;;;;;;;;5008610;28;93288;-72
2022/03/17 14:41:55;;;;;;;10.68;2.13;;;;;;;;;;4998775;28;93581;-70
2022/03/17 14:44:22;;;;;;;10.15;2.65;;;;;;;;;;5000384;27;94088;-70
2022/03/17 14:46:51;;;;;;;9.18;2.53;;;;;;;;;;4998695;27;95430;-71
2022/03/17 14:49:17;;;;;;;4.43;2.00;;;;;;;;;;4995986;28;96807;-70
2022/03/17 14:51:43;;;;;;;7.00;1.73;;;;;;;;;;4994598;28;94226;-70
2022/03/17 14:54:30;;;;;;;9.05;2.03;;;;;;;;;;4999386;28;92591;-70
2022/03/17 14:56:57;;;;;;;6.93;2.15;;;;;;;;;;4995573;28;94253;-70
2022/03/17 14:59:23;;;;;;;6.70;1.92;;;;;;;;;;4996559;28;95578;-70
2022/03/17 15:01:56;;;;;;;6.72;1.80;;;;;;;;;;4996354;28;94445;-69
2022/03/17 15:04:22;;;;;;;7.72;1.90;;;;;;;;;;4998214;27;94091;-70
2022/03/17 15:06:49;;;;;;;8.65;1.77;;;;;;;;;;4995775;28;93556;-72